< < Back
Terminal Aerodrome Forecast


Current Version              Previous Versions:   1  2  3  4  5  6  7  8  9  

Terminal Aerodrome Forecast

625
FTUS42 KTAE 262321
TAFVLD
TAF
KVLD 262321Z 2700/2724 00000KT P6SM SCT250
     FM271500 21004KT P6SM FEW050 SCT250=

Latest METAR

987
SAUS70 KWBC 270500
MTRVLD
METAR KVLD 270453Z AUTO 00000KT 10SM CLR 24/23 A3008 RMK AO2 SLP192
T02390233 403390228


USA.gov is the U.S. government's official web portal to all federal, state and local government web resources and services.